Time;durP1;ratioP1;P1;durP2;ratioP2;P2;SDS_P1;SDS_P2;PMS_P1;PMS_P2;Temp;Humidity;BMP_temperature;BMP_pressure;BME280_temperature;BME280_humidity;BME280_pressure;Samples;Min_cycle;Max_cycle;Signal;HPM_P1;HPM_P2
2022/06/11 00:01:32;;;;;;;3.95;2.15;;;19.10;99.90;;;;;;7393168;19;20139;-75
2022/06/11 00:04:02;;;;;;;4.82;2.50;;;18.70;99.90;;;;;;7393667;19;20176;-75
2022/06/11 00:06:30;;;;;;;4.38;2.53;;;18.30;99.90;;;;;;7389661;19;20150;-73
2022/06/11 00:08:56;;;;;;;4.03;2.40;;;18.30;99.90;;;;;;7392637;19;20130;-73
2022/06/11 00:11:23;;;;;;;5.18;2.60;;;18.30;99.90;;;;;;7393058;19;20546;-73
2022/06/11 00:13:49;;;;;;;7.00;2.25;;;18.30;99.90;;;;;;7386345;19;20483;-73
2022/06/11 00:16:18;;;;;;;4.07;2.38;;;18.40;99.90;;;;;;7389138;19;20213;-76
2022/06/11 00:18:45;;;;;;;4.80;2.22;;;18.40;99.90;;;;;;7390346;19;20157;-73
2022/06/11 00:21:13;;;;;;;4.60;2.53;;;18.50;99.90;;;;;;7391591;19;20604;-73
2022/06/11 00:23:40;;;;;;;5.80;2.92;;;18.70;99.90;;;;;;7393099;19;20463;-74
2022/06/11 00:26:06;;;;;;;4.75;2.50;;;18.80;99.90;;;;;;7390299;19;20153;-73
2022/06/11 00:28:32;;;;;;;4.55;2.40;;;18.40;99.90;;;;;;7390824;19;20135;-72
2022/06/11 00:30:58;;;;;;;3.33;2.28;;;18.40;99.90;;;;;;7390209;19;20135;-73
2022/06/11 00:33:24;;;;;;;2.92;1.80;;;18.50;99.90;;;;;;7390398;19;20174;-75
2022/06/11 00:35:51;;;;;;;4.15;2.10;;;18.30;99.90;;;;;;7388502;19;20141;-73
2022/06/11 00:38:18;;;;;;;4.28;2.00;;;18.10;99.90;;;;;;7390746;19;20138;-76
2022/06/11 00:40:46;;;;;;;4.28;1.90;;;17.90;99.90;;;;;;7389319;19;20161;-75
2022/06/11 00:43:16;;;;;;;4.82;1.92;;;17.60;99.90;;;;;;7391853;19;20145;-74
2022/06/11 00:45:51;;;;;;;2.97;1.92;;;17.40;99.90;;;;;;7388517;19;20213;-73
2022/06/11 00:48:24;;;;;;;10.55;2.15;;;17.60;99.90;;;;;;7390252;19;20131;-76
2022/06/11 00:50:57;;;;;;;4.68;1.70;;;17.70;99.90;;;;;;7392579;19;20227;-72
2022/06/11 00:53:41;;;;;;;3.97;1.75;;;17.80;99.90;;;;;;7393237;19;20135;-75
2022/06/11 00:56:25;;;;;;;2.70;1.85;;;17.70;99.90;;;;;;7390358;19;20537;-72
2022/06/11 00:58:54;;;;;;;2.25;1.70;;;17.60;99.90;;;;;;7388632;19;20138;-75
2022/06/11 01:01:23;;;;;;;4.00;1.90;;;17.40;99.90;;;;;;7388114;19;20151;-73
2022/06/11 01:03:53;;;;;;;3.55;1.75;;;17.20;99.90;;;;;;7392219;19;20155;-76
2022/06/11 01:06:26;;;;;;;2.13;1.52;;;17.20;99.90;;;;;;7387765;19;20139;-73
2022/06/11 01:09:00;;;;;;;3.60;2.00;;;17.00;99.90;;;;;;7390807;19;20900;-74
2022/06/11 01:11:45;;;;;;;2.55;1.77;;;16.90;99.90;;;;;;7390647;19;20141;-72
2022/06/11 01:14:26;;;;;;;5.28;1.63;;;17.30;99.90;;;;;;7389896;19;20159;-75
2022/06/11 01:16:57;;;;;;;2.47;1.80;;;17.10;99.90;;;;;;7390328;19;20134;-75
2022/06/11 01:19:44;;;;;;;2.22;1.70;;;16.90;99.90;;;;;;7388325;19;20166;-72
2022/06/11 01:22:45;;;;;;;2.10;1.40;;;17.10;99.90;;;;;;7390823;19;20146;-73
2022/06/11 01:25:25;;;;;;;2.53;1.77;;;17.10;99.90;;;;;;7388599;19;20162;-74
2022/06/11 01:28:17;;;;;;;2.13;1.38;;;17.10;99.90;;;;;;7388991;19;20152;-74
2022/06/11 01:30:55;;;;;;;1.80;1.40;;;17.00;99.90;;;;;;7387268;19;20150;-72
2022/06/11 01:33:57;;;;;;;3.65;1.80;;;17.00;99.90;;;;;;7390785;19;20546;-75
2022/06/11 01:36:44;;;;;;;3.83;1.60;;;17.00;99.90;;;;;;7386600;19;20154;-75
2022/06/11 01:39:22;;;;;;;2.55;1.55;;;17.10;99.90;;;;;;7389073;19;20134;-73
2022/06/11 01:41:53;;;;;;;3.92;1.45;;;17.10;99.90;;;;;;7386430;19;20153;-75
2022/06/11 01:44:30;;;;;;;3.20;1.40;;;17.20;99.90;;;;;;7387422;19;20143;-73
2022/06/11 01:46:57;;;;;;;2.17;1.55;;;17.40;99.90;;;;;;7388315;19;20150;-76
2022/06/11 01:49:23;;;;;;;2.13;1.20;;;17.40;99.90;;;;;;7387244;19;20167;-73
2022/06/11 01:51:58;;;;;;;1.98;1.40;;;17.40;99.90;;;;;;7387131;19;20729;-75
2022/06/11 01:54:49;;;;;;;2.75;1.52;;;17.00;99.90;;;;;;7388317;19;20709;-73
2022/06/11 01:57:45;;;;;;;1.40;1.30;;;16.70;99.90;;;;;;7389764;19;20142;-72
2022/06/11 02:00:22;;;;;;;3.55;1.80;;;16.70;99.90;;;;;;7394153;19;20154;-75
2022/06/11 02:03:09;;;;;;;3.10;1.50;;;16.70;99.90;;;;;;7395412;19;20161;-73
2022/06/11 02:05:59;;;;;;;5.65;1.42;;;16.90;99.90;;;;;;7395252;19;20533;-75
2022/06/11 02:08:50;;;;;;;2.03;1.60;;;16.80;99.90;;;;;;7396915;19;20126;-75
2022/06/11 02:11:38;;;;;;;2.13;1.50;;;16.80;99.90;;;;;;7397207;19;20518;-72
2022/06/11 02:14:26;;;;;;;2.63;1.60;;;16.80;99.90;;;;;;7392731;19;20160;-72
2022/06/11 02:17:05;;;;;;;2.58;1.33;;;16.90;99.90;;;;;;7395267;19;20135;-74
2022/06/11 02:19:54;;;;;;;1.55;1.40;;;16.80;99.90;;;;;;7390038;19;20217;-73
2022/06/11 02:22:29;;;;;;;3.25;1.60;;;17.00;99.90;;;;;;7395459;19;20589;-74
2022/06/11 02:25:11;;;;;;;2.72;1.70;;;17.10;99.90;;;;;;7392137;19;20254;-75
2022/06/11 02:27:39;;;;;;;2.35;1.70;;;16.80;99.90;;;;;;7397047;19;20134;-75
2022/06/11 02:30:08;;;;;;;4.47;1.90;;;16.80;99.90;;;;;;7396893;19;20134;-76
2022/06/11 02:32:34;;;;;;;2.40;2.00;;;16.70;99.90;;;;;;7390587;19;20575;-72
2022/06/11 02:35:05;;;;;;;4.10;2.30;;;16.80;99.90;;;;;;7396284;19;20165;-72
2022/06/11 02:37:35;;;;;;;3.95;2.10;;;16.80;99.90;;;;;;7393215;19;20142;-73
2022/06/11 02:40:07;;;;;;;3.50;1.98;;;16.80;99.90;;;;;;7397079;19;20168;-76
2022/06/11 02:42:33;;;;;;;3.47;2.20;;;16.80;99.90;;;;;;7391525;19;20146;-76
2022/06/11 02:44:59;;;;;;;2.63;1.70;;;16.70;99.90;;;;;;7394782;19;20167;-75
2022/06/11 02:47:25;;;;;;;2.55;1.38;;;16.80;99.90;;;;;;7393947;19;20139;-72
2022/06/11 02:49:51;;;;;;;4.13;2.42;;;16.80;99.90;;;;;;7396854;19;20163;-74
2022/06/11 02:52:20;;;;;;;3.10;1.80;;;16.40;99.90;;;;;;7388277;19;20610;-75
2022/06/11 02:54:49;;;;;;;2.33;1.60;;;16.30;99.90;;;;;;7393185;19;20578;-73
2022/06/11 02:57:20;;;;;;;1.98;1.40;;;16.60;99.90;;;;;;7394239;19;20138;-73
2022/06/11 02:59:47;;;;;;;4.30;1.50;;;16.80;99.90;;;;;;7394396;19;20152;-73
2022/06/11 03:02:13;;;;;;;1.52;1.30;;;17.00;99.90;;;;;;7391313;19;20232;-75
2022/06/11 03:04:40;;;;;;;2.08;1.33;;;17.10;99.90;;;;;;7393802;19;20150;-75
2022/06/11 03:07:05;;;;;;;1.50;1.13;;;17.00;99.90;;;;;;7389945;19;20190;-76
2022/06/11 03:09:33;;;;;;;3.25;1.40;;;16.50;99.90;;;;;;7391604;19;20135;-71
2022/06/11 03:12:00;;;;;;;2.92;1.40;;;16.20;99.90;;;;;;7394641;19;20135;-75
2022/06/11 03:14:26;;;;;;;3.83;1.50;;;16.40;99.90;;;;;;7392677;19;20127;-73
2022/06/11 03:16:52;;;;;;;1.55;1.35;;;16.80;99.90;;;;;;7392374;19;20167;-76
2022/06/11 03:19:20;;;;;;;3.22;1.55;;;17.20;99.90;;;;;;7390112;19;20150;-72
2022/06/11 03:21:48;;;;;;;2.60;1.40;;;16.60;99.90;;;;;;7394400;19;20150;-72
2022/06/11 03:24:15;;;;;;;3.45;1.42;;;16.50;99.90;;;;;;7391910;19;20175;-73
2022/06/11 03:26:41;;;;;;;2.72;1.63;;;16.50;99.90;;;;;;7391831;19;20231;-75
2022/06/11 03:29:08;;;;;;;2.58;1.50;;;16.30;99.90;;;;;;7395165;19;20175;-75
2022/06/11 03:31:34;;;;;;;4.00;1.73;;;16.00;99.90;;;;;;7392444;19;20601;-73
2022/06/11 03:34:00;;;;;;;12.38;4.50;;;16.20;99.90;;;;;;7392704;19;20145;-75
2022/06/11 03:36:26;;;;;;;4.78;1.98;;;16.30;99.90;;;;;;7390782;19;20493;-73
2022/06/11 03:38:52;;;;;;;3.00;1.48;;;16.20;99.90;;;;;;7391108;19;20146;-75
2022/06/11 03:41:21;;;;;;;3.05;1.73;;;16.10;99.90;;;;;;7390447;19;20147;-73
2022/06/11 03:43:49;;;;;;;3.75;1.75;;;15.90;99.90;;;;;;7390671;19;20138;-75
2022/06/11 03:46:15;;;;;;;2.67;1.60;;;16.10;99.90;;;;;;7394896;19;20637;-73
2022/06/11 03:48:41;;;;;;;2.78;1.80;;;16.30;99.90;;;;;;7388153;19;20271;-72
2022/06/11 03:51:08;;;;;;;2.53;1.75;;;16.10;99.90;;;;;;7392836;19;20154;-75
2022/06/11 03:53:36;;;;;;;2.13;1.70;;;16.20;99.90;;;;;;7390163;19;20162;-75
2022/06/11 03:56:04;;;;;;;2.85;1.55;;;16.60;99.90;;;;;;7392320;19;20613;-75
2022/06/11 03:58:30;;;;;;;2.08;1.52;;;16.80;99.90;;;;;;7390762;19;20131;-73
2022/06/11 04:01:16;;;;;;;2.70;1.52;;;16.90;99.90;;;;;;7391583;19;20166;-72
2022/06/11 04:03:58;;;;;;;2.72;1.50;;;17.00;99.90;;;;;;7389713;19;20186;-74
2022/06/11 04:06:29;;;;;;;2.50;1.45;;;16.70;99.90;;;;;;7392603;19;20142;-72
2022/06/11 04:08:55;;;;;;;3.47;1.65;;;16.40;99.90;;;;;;7389250;19;20697;-74
2022/06/11 04:11:22;;;;;;;3.97;1.40;;;16.20;99.90;;;;;;7392645;19;20166;-72
2022/06/11 04:13:49;;;;;;;1.77;1.30;;;16.30;99.90;;;;;;7393073;19;20512;-72
2022/06/11 04:16:25;;;;;;;2.80;1.52;;;16.30;99.90;;;;;;7391019;19;20165;-76
2022/06/11 04:18:52;;;;;;;2.70;1.58;;;16.30;99.90;;;;;;7388652;19;20153;-74
2022/06/11 04:21:18;;;;;;;2.00;1.48;;;16.50;99.90;;;;;;7388725;19;20131;-72
2022/06/11 04:23:49;;;;;;;1.50;1.40;;;16.70;99.90;;;;;;7393523;19;20146;-73
2022/06/11 04:26:18;;;;;;;3.40;1.40;;;16.80;99.90;;;;;;7389038;19;20146;-72
2022/06/11 04:28:44;;;;;;;2.88;1.80;;;16.70;99.90;;;;;;7389456;19;20198;-74
2022/06/11 04:31:11;;;;;;;2.35;1.33;;;16.60;99.90;;;;;;7389761;19;20142;-73
2022/06/11 04:33:38;;;;;;;5.85;2.67;;;16.50;99.90;;;;;;7392518;19;20506;-73
2022/06/11 04:36:07;;;;;;;3.00;2.13;;;16.60;99.90;;;;;;7387886;19;20215;-72
2022/06/11 04:38:33;;;;;;;1.70;1.48;;;16.70;99.90;;;;;;7391530;19;20178;-73
2022/06/11 04:40:59;;;;;;;2.17;1.88;;;16.60;99.90;;;;;;7389473;19;20142;-73
2022/06/11 04:43:25;;;;;;;2.75;1.60;;;16.70;99.90;;;;;;7392938;19;20149;-72
2022/06/11 04:45:51;;;;;;;2.13;1.58;;;16.70;99.90;;;;;;7391949;19;20138;-72
2022/06/11 04:48:17;;;;;;;2.40;1.45;;;17.00;99.90;;;;;;7391542;19;20245;-74
2022/06/11 04:50:43;;;;;;;3.80;1.70;;;17.00;99.90;;;;;;7390559;19;20135;-74
2022/06/11 04:53:08;;;;;;;5.85;1.70;;;17.10;99.90;;;;;;7386522;19;20138;-75
2022/06/11 04:55:34;;;;;;;4.40;2.00;;;17.10;99.90;;;;;;7389642;19;20445;-72
2022/06/11 04:58:00;;;;;;;1.80;1.30;;;17.40;99.90;;;;;;7388350;19;20469;-75
2022/06/11 05:00:29;;;;;;;2.67;1.92;;;17.40;99.90;;;;;;7388476;19;20575;-75
2022/06/11 05:02:55;;;;;;;2.05;1.85;;;17.60;99.90;;;;;;7389848;19;20142;-72
2022/06/11 05:05:21;;;;;;;3.22;1.77;;;17.70;99.90;;;;;;7388520;19;20195;-74
2022/06/11 05:07:48;;;;;;;3.00;1.98;;;17.70;99.90;;;;;;7388905;19;20786;-75
2022/06/11 05:10:16;;;;;;;3.08;1.98;;;17.80;99.90;;;;;;7391683;19;20146;-73
2022/06/11 05:12:42;;;;;;;4.70;1.98;;;17.80;99.90;;;;;;7387231;19;20459;-73
2022/06/11 05:15:09;;;;;;;3.55;2.10;;;17.90;99.90;;;;;;7390127;19;20146;-72
2022/06/11 05:17:34;;;;;;;2.17;1.63;;;17.80;99.90;;;;;;7391026;19;20140;-72
2022/06/11 05:20:01;;;;;;;3.13;1.73;;;17.90;99.90;;;;;;7385706;19;20626;-72
2022/06/11 05:22:27;;;;;;;2.70;1.80;;;18.00;99.90;;;;;;7390715;19;20243;-73
2022/06/11 05:24:52;;;;;;;3.78;1.70;;;18.10;99.90;;;;;;7389393;19;20130;-72
2022/06/11 05:27:22;;;;;;;3.08;2.10;;;18.10;99.90;;;;;;7386980;19;20233;-74
2022/06/11 05:29:59;;;;;;;2.50;1.55;;;18.20;99.90;;;;;;7389207;19;20131;-75
2022/06/11 05:32:29;;;;;;;3.90;2.13;;;18.20;99.90;;;;;;7391861;19;20138;-73
2022/06/11 05:34:59;;;;;;;3.38;2.10;;;18.20;99.90;;;;;;7397388;19;20154;-73
2022/06/11 05:37:26;;;;;;;1.73;1.63;;;18.20;99.90;;;;;;7396438;19;20146;-72
2022/06/11 05:39:52;;;;;;;2.97;1.90;;;18.30;99.90;;;;;;7396446;19;20505;-75
2022/06/11 05:42:21;;;;;;;2.00;1.80;;;18.30;99.90;;;;;;7399007;19;20150;-72
2022/06/11 05:44:47;;;;;;;2.47;1.90;;;18.30;99.90;;;;;;7397880;19;20147;-74
2022/06/11 05:47:15;;;;;;;4.10;1.80;;;18.40;99.90;;;;;;7397963;19;20150;-73
2022/06/11 05:49:44;;;;;;;2.17;1.92;;;18.40;99.90;;;;;;7396347;19;20138;-72
2022/06/11 05:52:16;;;;;;;2.92;1.75;;;18.30;99.90;;;;;;7391841;19;20135;-76
2022/06/11 05:54:43;;;;;;;1.98;1.80;;;18.40;99.90;;;;;;7398382;19;20527;-75
2022/06/11 05:57:13;;;;;;;2.50;1.88;;;18.50;99.90;;;;;;7396720;19;20135;-76
2022/06/11 05:59:44;;;;;;;5.30;2.08;;;18.50;99.90;;;;;;7393404;19;20159;-76
2022/06/11 06:02:13;;;;;;;4.30;2.10;;;18.50;99.90;;;;;;7395729;19;20131;-77
2022/06/11 06:04:39;;;;;;;3.80;1.98;;;18.60;99.90;;;;;;7392228;19;20199;-72
2022/06/11 06:07:08;;;;;;;4.00;2.03;;;18.60;99.90;;;;;;7398180;19;20145;-73
2022/06/11 06:09:34;;;;;;;5.93;2.10;;;18.70;99.90;;;;;;7395599;19;20610;-75
2022/06/11 06:12:00;;;;;;;3.30;2.35;;;19.00;99.90;;;;;;7394677;19;20142;-76
2022/06/11 06:14:26;;;;;;;3.47;2.00;;;19.80;99.90;;;;;;7394973;19;20238;-73
2022/06/11 06:16:52;;;;;;;3.80;2.15;;;20.60;99.90;;;;;;7392838;19;20134;-73
2022/06/11 06:19:18;;;;;;;2.70;1.98;;;21.00;99.90;;;;;;7392665;19;20510;-76
2022/06/11 06:21:45;;;;;;;4.68;2.05;;;21.30;99.90;;;;;;7397844;19;20613;-73
2022/06/11 06:24:11;;;;;;;2.13;1.80;;;21.80;99.90;;;;;;7395284;19;20172;-75
2022/06/11 06:26:37;;;;;;;3.28;1.85;;;22.40;99.90;;;;;;7391621;19;20134;-73
2022/06/11 06:29:04;;;;;;;3.17;2.45;;;22.90;99.90;;;;;;7394767;19;20135;-72
2022/06/11 06:31:29;;;;;;;4.15;1.80;;;23.30;99.90;;;;;;7394541;19;20142;-73
2022/06/11 06:34:00;;;;;;;3.13;1.90;;;23.80;99.90;;;;;;7395917;19;21647;-74
2022/06/11 06:36:28;;;;;;;4.32;1.70;;;24.00;99.90;;;;;;7393930;19;20131;-73
2022/06/11 06:38:54;;;;;;;3.10;2.00;;;24.10;99.90;;;;;;7395354;19;20574;-75
2022/06/11 06:41:20;;;;;;;2.75;1.83;;;23.90;99.90;;;;;;7395334;19;20231;-72
2022/06/11 06:43:48;;;;;;;2.78;1.73;;;23.60;99.90;;;;;;7392605;19;20168;-72
2022/06/11 06:46:15;;;;;;;2.10;1.75;;;23.50;99.90;;;;;;7395238;19;20147;-73
2022/06/11 06:48:43;;;;;;;2.63;1.83;;;23.80;99.90;;;;;;7394244;19;20126;-75
2022/06/11 06:51:10;;;;;;;2.72;1.80;;;24.00;99.90;;;;;;7395328;19;20135;-72
2022/06/11 06:53:37;;;;;;;3.90;1.70;;;24.40;99.90;;;;;;7392599;19;20122;-72
2022/06/11 06:56:03;;;;;;;2.38;1.55;;;24.70;99.90;;;;;;7390481;19;20486;-74
2022/06/11 06:58:29;;;;;;;2.55;1.50;;;24.60;99.90;;;;;;7392098;19;20135;-73
2022/06/11 07:00:55;;;;;;;2.50;1.58;;;24.70;99.90;;;;;;7389163;19;20143;-73
2022/06/11 07:03:21;;;;;;;1.85;1.70;;;24.80;99.90;;;;;;7389553;19;20170;-72
2022/06/11 07:05:48;;;;;;;2.08;1.70;;;24.90;99.90;;;;;;7392678;19;20154;-73
2022/06/11 07:08:15;;;;;;;3.08;1.67;;;25.30;99.90;;;;;;7393466;19;20147;-75
2022/06/11 07:10:45;;;;;;;2.33;1.80;;;25.30;99.90;;;;;;7392559;19;20134;-72
2022/06/11 07:13:11;;;;;;;1.77;1.50;;;25.60;99.90;;;;;;7392652;19;20190;-75
2022/06/11 07:15:37;;;;;;;2.55;1.77;;;25.80;99.60;;;;;;7391220;19;20172;-75
2022/06/11 07:18:14;;;;;;;1.63;1.50;;;25.80;99.40;;;;;;7391876;19;20135;-74
2022/06/11 07:20:42;;;;;;;3.42;1.70;;;25.80;99.40;;;;;;7391020;19;20150;-75
2022/06/11 07:23:35;;;;;;;4.75;1.70;;;26.00;98.90;;;;;;7391610;19;20150;-75
2022/06/11 07:26:06;;;;;;;2.78;1.50;;;25.90;99.00;;;;;;7393444;19;20135;-72
2022/06/11 07:28:43;;;;;;;2.08;1.30;;;26.10;98.90;;;;;;7392574;19;20151;-72
2022/06/11 07:31:09;;;;;;;7.15;1.80;;;26.40;98.50;;;;;;7381371;19;20799;-72
2022/06/11 07:33:35;;;;;;;1.55;1.30;;;26.40;98.00;;;;;;7386639;19;20142;-72
2022/06/11 07:36:02;;;;;;;2.58;1.42;;;26.50;97.80;;;;;;7392103;19;20139;-73
2022/06/11 07:38:28;;;;;;;1.65;1.40;;;26.60;97.60;;;;;;7393246;19;20130;-75
2022/06/11 07:40:54;;;;;;;3.15;1.33;;;26.40;97.70;;;;;;7390309;19;20134;-73
2022/06/11 07:43:20;;;;;;;1.70;1.50;;;26.50;97.60;;;;;;7394649;19;20150;-76
2022/06/11 07:45:46;;;;;;;1.60;1.10;;;26.20;97.00;;;;;;7392313;19;20139;-73
2022/06/11 07:48:13;;;;;;;2.60;1.38;;;26.10;97.10;;;;;;7393542;19;20501;-72
2022/06/11 07:50:43;;;;;;;4.18;1.90;;;26.50;97.00;;;;;;7389763;19;20210;-73
2022/06/11 07:53:09;;;;;;;3.17;1.42;;;26.80;96.70;;;;;;7390593;19;20192;-76
2022/06/11 07:55:37;;;;;;;2.50;1.42;;;27.20;96.00;;;;;;7388423;19;20127;-74
2022/06/11 07:58:05;;;;;;;3.92;1.40;;;27.30;95.30;;;;;;7389524;19;20162;-76
2022/06/11 08:00:35;;;;;;;4.38;1.98;;;27.10;95.20;;;;;;7388218;19;20232;-72
2022/06/11 08:03:01;;;;;;;2.95;2.05;;;27.30;95.20;;;;;;7388586;19;20160;-75
2022/06/11 08:05:28;;;;;;;2.95;1.63;;;27.90;95.10;;;;;;7390122;19;20135;-75
2022/06/11 08:07:54;;;;;;;2.05;1.60;;;28.10;94.10;;;;;;7391621;19;20190;-73
2022/06/11 08:10:22;;;;;;;2.75;1.20;;;28.10;93.70;;;;;;7393447;19;20650;-73
2022/06/11 08:12:48;;;;;;;3.22;1.58;;;28.00;93.30;;;;;;7386530;19;20147;-72
2022/06/11 08:15:14;;;;;;;1.67;1.30;;;27.70;93.10;;;;;;7390032;19;20158;-73
2022/06/11 08:17:40;;;;;;;1.50;1.30;;;27.40;93.50;;;;;;7387816;19;20480;-75
2022/06/11 08:20:08;;;;;;;1.67;1.23;;;27.10;94.00;;;;;;7389356;19;20158;-74
2022/06/11 08:22:35;;;;;;;2.58;1.10;;;27.10;93.60;;;;;;7391944;19;20150;-75
2022/06/11 08:25:01;;;;;;;1.80;1.08;;;27.30;93.70;;;;;;7388177;19;20152;-72
2022/06/11 08:27:27;;;;;;;3.13;1.38;;;27.50;93.60;;;;;;7382846;19;20152;-74
2022/06/11 08:29:53;;;;;;;1.40;1.30;;;27.80;93.10;;;;;;7383636;19;20126;-72
2022/06/11 08:32:18;;;;;;;2.47;1.45;;;28.00;92.70;;;;;;7383712;19;20138;-73
2022/06/11 08:34:46;;;;;;;4.03;1.40;;;28.20;92.40;;;;;;7381220;19;20133;-75
2022/06/11 08:37:13;;;;;;;2.53;1.42;;;28.20;92.60;;;;;;7400337;19;20586;-73
2022/06/11 08:39:39;;;;;;;2.58;1.45;;;28.40;91.80;;;;;;7395573;19;20134;-75
2022/06/11 08:42:07;;;;;;;2.42;1.17;;;28.00;92.50;;;;;;7380124;19;20863;-75
2022/06/11 08:44:37;;;;;;;3.00;1.20;;;28.40;92.00;;;;;;7382745;19;20206;-72
2022/06/11 08:47:11;;;;;;;4.00;1.40;;;28.50;91.30;;;;;;7385144;19;20231;-76
2022/06/11 08:49:45;;;;;;;3.53;1.40;;;28.10;91.70;;;;;;7387955;19;20133;-74
2022/06/11 08:52:17;;;;;;;4.97;1.70;;;27.70;91.90;;;;;;7389544;19;20469;-73
2022/06/11 08:54:45;;;;;;;1.73;1.27;;;27.40;92.20;;;;;;7384828;19;20131;-75
2022/06/11 08:57:37;;;;;;;3.30;1.27;;;27.40;92.90;;;;;;7386344;19;20156;-76
2022/06/11 09:00:11;;;;;;;2.50;1.40;;;27.40;92.90;;;;;;7388683;19;20642;-75
2022/06/11 09:02:55;;;;;;;2.30;1.10;;;27.50;92.00;;;;;;7387234;19;20180;-74
2022/06/11 09:05:42;;;;;;;2.42;1.30;;;27.60;91.70;;;;;;7387942;19;20160;-74
2022/06/11 09:08:27;;;;;;;2.45;1.45;;;27.20;92.10;;;;;;7385584;19;20146;-72
2022/06/11 09:11:25;;;;;;;1.83;1.20;;;26.80;92.30;;;;;;7390243;19;20546;-75
2022/06/11 09:14:06;;;;;;;1.70;1.30;;;26.90;92.40;;;;;;7384191;19;20154;-73
2022/06/11 09:16:35;;;;;;;1.83;1.20;;;26.80;92.20;;;;;;7379477;19;20211;-74
2022/06/11 09:19:09;;;;;;;2.05;1.30;;;26.60;92.40;;;;;;7382243;19;20274;-73
2022/06/11 09:21:44;;;;;;;2.78;1.33;;;26.20;92.50;;;;;;7391819;19;20138;-74
2022/06/11 09:24:41;;;;;;;3.60;1.50;;;26.30;92.80;;;;;;7391097;19;20137;-75
2022/06/11 09:27:36;;;;;;;3.83;1.75;;;26.30;92.80;;;;;;7389617;19;20142;-74
2022/06/11 09:30:14;;;;;;;1.65;1.40;;;26.60;92.70;;;;;;7391635;19;20162;-74
2022/06/11 09:32:56;;;;;;;1.75;1.17;;;26.40;92.50;;;;;;7387404;19;20676;-73
2022/06/11 09:35:29;;;;;;;3.05;1.75;;;26.60;92.20;;;;;;7388104;19;20140;-74
2022/06/11 09:38:18;;;;;;;3.42;1.95;;;26.80;92.10;;;;;;7387527;19;20487;-74
2022/06/11 09:41:04;;;;;;;2.28;1.50;;;26.80;92.00;;;;;;7387721;19;20131;-74
2022/06/11 09:44:11;;;;;;;2.90;2.00;;;26.80;92.20;;;;;;7385894;19;20126;-73
2022/06/11 09:46:58;;;;;;;2.33;1.08;;;26.80;92.60;;;;;;7382069;19;20149;-75
2022/06/11 09:49:43;;;;;;;1.95;1.38;;;26.90;92.40;;;;;;7387145;19;20146;-74
2022/06/11 09:52:32;;;;;;;3.92;1.02;;;27.20;92.20;;;;;;7388058;19;20565;-73
2022/06/11 09:55:21;;;;;;;3.40;1.30;;;27.30;92.00;;;;;;7381069;19;20134;-73
2022/06/11 09:57:58;;;;;;;2.40;1.40;;;27.50;91.70;;;;;;7380973;19;20147;-75
2022/06/11 10:00:25;;;;;;;2.95;1.20;;;27.60;91.30;;;;;;7376024;19;20141;-75
2022/06/11 10:05:47;;;;;;;2.53;1.38;;;27.10;91.00;;;;;;7380135;19;20244;-75
2022/06/11 10:08:42;;;;;;;1.80;1.30;;;26.90;91.20;;;;;;7379070;19;20188;-73
2022/06/11 10:11:29;;;;;;;2.88;1.60;;;26.80;91.30;;;;;;7387602;19;20146;-74
2022/06/11 10:17:22;;;;;;;2.38;1.30;;;26.20;92.00;;;;;;7390395;19;20143;-74
2022/06/11 10:20:16;;;;;;;2.15;1.33;;;25.70;92.40;;;;;;7393309;19;20161;-75
2022/06/11 10:22:45;;;;;;;1.90;1.33;;;25.40;92.90;;;;;;7391754;19;20150;-75
2022/06/11 10:25:29;;;;;;;2.72;1.45;;;25.30;93.10;;;;;;7395406;19;20139;-73
2022/06/11 10:28:14;;;;;;;1.90;1.63;;;25.30;93.30;;;;;;7399698;19;20169;-74
2022/06/11 10:30:52;;;;;;;3.80;2.75;;;25.50;93.80;;;;;;7391463;19;20149;-75
2022/06/11 10:33:29;;;;;;;1.70;1.48;;;25.70;93.20;;;;;;7389255;19;20146;-73
2022/06/11 10:36:03;;;;;;;3.90;1.67;;;25.80;92.80;;;;;;7390680;19;20206;-72
2022/06/11 10:38:46;;;;;;;3.67;1.70;;;25.90;92.70;;;;;;7393924;19;20130;-73
2022/06/11 10:41:26;;;;;;;3.53;1.55;;;25.70;92.80;;;;;;7393075;19;20145;-74
2022/06/11 10:44:11;;;;;;;2.70;1.38;;;25.50;92.90;;;;;;7394770;19;20464;-76
2022/06/11 10:46:38;;;;;;;3.95;1.50;;;25.50;93.00;;;;;;7391600;19;20218;-73
2022/06/11 10:49:14;;;;;;;2.45;1.40;;;25.70;93.20;;;;;;7393402;19;20139;-76
2022/06/11 10:51:44;;;;;;;2.72;1.30;;;25.70;92.90;;;;;;7391332;19;20167;-75
2022/06/11 10:54:20;;;;;;;2.70;1.45;;;25.60;93.00;;;;;;7391283;19;20531;-74
2022/06/11 10:57:00;;;;;;;2.35;1.45;;;25.70;92.80;;;;;;7393346;19;20150;-72
2022/06/11 10:59:52;;;;;;;2.90;1.98;;;25.90;92.80;;;;;;7395507;19;20150;-75
2022/06/11 11:02:29;;;;;;;3.60;1.65;;;25.90;92.40;;;;;;7389298;19;20154;-76
2022/06/11 11:05:08;;;;;;;3.13;1.60;;;25.70;92.80;;;;;;7391936;19;20654;-73
2022/06/11 11:07:51;;;;;;;3.25;1.40;;;25.90;92.50;;;;;;7391930;19;20222;-73
2022/06/11 11:10:39;;;;;;;1.52;1.23;;;25.80;92.40;;;;;;7393211;19;20150;-72
2022/06/11 11:13:43;;;;;;;2.33;1.30;;;25.60;92.90;;;;;;7392191;19;20222;-75
2022/06/11 11:16:12;;;;;;;2.03;1.30;;;25.80;92.40;;;;;;7393420;19;20146;-72
2022/06/11 11:19:05;;;;;;;1.95;1.55;;;25.80;92.30;;;;;;7391919;19;20162;-74
2022/06/11 11:21:35;;;;;;;4.18;2.20;;;25.70;92.20;;;;;;7390563;19;20179;-73
2022/06/11 11:24:19;;;;;;;2.83;1.70;;;25.70;92.60;;;;;;7393150;19;20139;-75
2022/06/11 11:27:11;;;;;;;2.40;1.70;;;25.80;92.80;;;;;;7392099;19;20163;-75
2022/06/11 11:30:17;;;;;;;4.32;1.45;;;26.20;92.70;;;;;;7392391;19;20146;-73
2022/06/11 11:32:45;;;;;;;2.25;1.70;;;26.50;91.90;;;;;;7388659;19;20161;-72
2022/06/11 11:35:14;;;;;;;1.80;1.20;;;26.50;91.80;;;;;;7390220;19;20206;-73
2022/06/11 11:37:40;;;;;;;3.13;1.67;;;26.40;91.60;;;;;;7388019;19;20158;-73
2022/06/11 11:40:25;;;;;;;2.15;1.35;;;26.30;91.70;;;;;;7391312;19;20151;-74
2022/06/11 11:42:56;;;;;;;2.33;1.30;;;26.30;91.70;;;;;;7391716;19;20302;-73
2022/06/11 11:45:41;;;;;;;3.08;1.52;;;26.30;92.10;;;;;;7391824;19;20218;-75
2022/06/11 11:48:12;;;;;;;2.78;1.52;;;26.50;91.40;;;;;;7390494;19;20142;-74
2022/06/11 11:50:41;;;;;;;3.40;1.20;;;26.50;91.40;;;;;;7393727;19;20143;-74
2022/06/11 11:53:24;;;;;;;2.95;1.42;;;26.20;91.50;;;;;;7386327;19;20499;-75
2022/06/11 11:56:03;;;;;;;2.95;1.20;;;25.90;92.00;;;;;;7393079;19;20489;-74
2022/06/11 11:58:33;;;;;;;3.03;1.70;;;26.00;92.30;;;;;;7392269;19;20576;-75
2022/06/11 12:01:13;;;;;;;1.85;1.30;;;26.30;92.00;;;;;;7392346;19;20134;-74
2022/06/11 12:03:47;;;;;;;2.28;1.42;;;26.50;92.10;;;;;;7390991;19;20179;-73
2022/06/11 12:06:24;;;;;;;2.55;1.38;;;26.50;92.20;;;;;;7390205;19;20159;-76
2022/06/11 12:08:53;;;;;;;2.53;1.50;;;26.80;92.10;;;;;;7391396;19;20159;-72
2022/06/11 12:11:33;;;;;;;1.95;1.20;;;26.80;92.10;;;;;;7389866;19;20537;-73
2022/06/11 12:14:02;;;;;;;3.75;1.40;;;26.80;91.60;;;;;;7391020;19;20134;-73
2022/06/11 12:16:31;;;;;;;3.15;1.70;;;26.90;91.20;;;;;;7391224;19;20139;-73
2022/06/11 12:19:04;;;;;;;3.53;1.88;;;26.90;91.40;;;;;;7390583;19;20154;-73
2022/06/11 12:21:36;;;;;;;1.52;1.30;;;27.00;91.60;;;;;;7389978;19;20157;-72
2022/06/11 12:24:13;;;;;;;2.35;1.58;;;27.10;91.30;;;;;;7391330;19;20516;-73
2022/06/11 12:26:44;;;;;;;2.33;1.67;;;27.20;91.20;;;;;;7390334;19;20153;-76
2022/06/11 12:29:29;;;;;;;3.38;1.50;;;27.10;91.10;;;;;;7389143;19;20222;-75
2022/06/11 12:32:00;;;;;;;3.17;1.80;;;26.80;91.70;;;;;;7391565;19;20217;-75
2022/06/11 12:34:29;;;;;;;4.30;1.70;;;27.00;91.20;;;;;;7389967;19;20150;-73
2022/06/11 12:36:57;;;;;;;3.03;1.98;;;27.00;91.00;;;;;;7387886;19;20497;-75
2022/06/11 12:39:51;;;;;;;3.33;1.63;;;27.10;91.10;;;;;;7387322;19;20138;-75
2022/06/11 12:42:20;;;;;;;6.30;1.40;;;27.20;90.60;;;;;;7388538;19;20139;-74
2022/06/11 12:45:03;;;;;;;1.75;1.35;;;27.00;90.70;;;;;;7390313;19;20135;-73
2022/06/11 12:48:02;;;;;;;2.13;1.33;;;26.90;91.50;;;;;;7388903;19;20154;-74
2022/06/11 12:50:48;;;;;;;3.33;1.50;;;27.00;90.90;;;;;;7384876;19;20150;-73
2022/06/11 12:53:37;;;;;;;1.98;1.42;;;26.90;91.20;;;;;;7386846;19;20134;-73
2022/06/11 12:56:25;;;;;;;1.55;1.00;;;27.00;91.10;;;;;;7385651;19;20218;-74
2022/06/11 12:59:12;;;;;;;1.60;1.20;;;27.10;90.50;;;;;;7386696;19;20180;-73
2022/06/11 13:02:13;;;;;;;1.80;1.30;;;27.10;90.90;;;;;;7390109;19;20170;-74
2022/06/11 13:04:57;;;;;;;3.58;1.35;;;27.00;90.30;;;;;;7387122;19;20737;-74
2022/06/11 13:07:39;;;;;;;1.55;1.40;;;27.20;90.40;;;;;;7388630;19;20134;-73
2022/06/11 13:10:39;;;;;;;2.55;1.40;;;27.20;90.40;;;;;;7391233;19;20145;-74
2022/06/11 13:13:12;;;;;;;4.18;1.42;;;27.30;91.00;;;;;;7388025;19;20134;-75
2022/06/11 13:16:01;;;;;;;2.05;1.23;;;27.20;90.40;;;;;;7387108;19;20146;-73
2022/06/11 13:18:33;;;;;;;5.32;2.30;;;27.40;90.30;;;;;;7388135;19;20146;-74
2022/06/11 13:21:20;;;;;;;6.47;1.92;;;27.40;90.60;;;;;;7388725;19;20139;-74
2022/06/11 13:24:19;;;;;;;2.05;1.60;;;27.50;90.10;;;;;;7387923;19;20165;-74
2022/06/11 13:26:54;;;;;;;2.08;1.42;;;27.50;89.80;;;;;;7388040;19;20233;-73